Nanticoke — WDC4353 — position and weather

sailwx.info

Track history (hours):
 
Tides and Currents Weather Stations Pressure Air Temp Water Temp Dewpoint Dewpoint Depression Visibility Wind Speed Wind Dir Waves Ship Positions

Nanticoke

Owner: Vane Line Bunkering, Baltimore, MD. More information available from US FCC via Universal Licensing System and Coast Guard Vessel Documentation Center.

Last reported at 2017-Mar-24 05:33 UTC. Time now 2017-Mar-24 06:15 UTC.
Position N 40°39' W 074°08'.

Length 34 m; draft 4.7 m.

Type: Towing. MMSI: 367023480.

Date/timePositionNaut miles runAvg speedWind from/ knotsBaromVisibWave heightAir tempDewpointWater temp
2017-Mar-24 05:33N 40°39' W 074°08'3 2.7
2017-Mar-24 04:33N 40°39' W 074°05'1 1.1
2017-Mar-24 03:31N 40°40' W 074°05'0 0.0
2017-Mar-24 02:32N 40°40' W 074°05'0 0.0
2017-Mar-24 01:32N 40°40' W 074°05'0 0.0
2017-Mar-24 00:33N 40°40' W 074°05'2 2.0
2017-Mar-23 23:32N 40°39' W 074°07'0 0.0
2017-Mar-23 22:33N 40°39' W 074°07'6 5.7
2017-Mar-23 21:32N 40°41' W 074°00'1 1.3
2017-Mar-23 20:32N 40°40' W 074°00'0 0.0
2017-Mar-23 19:33N 40°40' W 074°00'0 0.0
2017-Mar-23 18:33N 40°40' W 074°00'0 0.0
2017-Mar-23 17:32N 40°40' W 074°00'3 3.4
2017-Mar-23 16:33N 40°39' W 074°04'4 3.6
2017-Mar-23 15:28N 40°41' W 074°09'0 0.0
2017-Mar-23 14:32N 40°41' W 074°09'0 0.0
2017-Mar-23 13:32N 40°41' W 074°09'1 0.6
2017-Mar-23 12:32N 40°41' W 074°09'0 0.1
2017-Mar-23 11:33N 40°41' W 074°09'0 0.0
2017-Mar-23 10:33N 40°41' W 074°09'0 0.0
2017-Mar-23 09:22N 40°41' W 074°09'0 0.0
2017-Mar-23 08:11N 40°41' W 074°09'0 0.0
2017-Mar-23 07:32N 40°41' W 074°09'0 0.0
2017-Mar-23 06:33N 40°41' W 074°09'0 0.0
2017-Mar-23 05:31N 40°41' W 074°09'0 0.0
2017-Mar-23 04:31N 40°41' W 074°09'0 0.0
2017-Mar-23 03:32N 40°41' W 074°09'0 0.0
2017-Mar-23 02:33N 40°41' W 074°09'0 0.0
2017-Mar-23 01:33N 40°41' W 074°09'0 0.0
2017-Mar-23 00:31N 40°41' W 074°09'0 0.0
2017-Mar-22 23:32N 40°41' W 074°09'0 0.0
2017-Mar-22 22:32N 40°41' W 074°09'0 0.0
2017-Mar-22 21:30N 40°41' W 074°09'2 2.0
2017-Mar-22 20:33N 40°39' W 074°09'2 2.0
2017-Mar-22 19:33N 40°39' W 074°06'2 1.5
2017-Mar-22 18:33N 40°40' W 074°05'0 0.0
2017-Mar-22 17:31N 40°40' W 074°05'2 1.9
2017-Mar-22 16:33N 40°40' W 074°03'2 1.9
2017-Mar-22 15:32N 40°40' W 074°00'0 0.0
2017-Mar-22 14:32N 40°40' W 074°00'0 0.0
2017-Mar-22 13:27N 40°40' W 074°00'1 0.8
2017-Mar-22 12:32N 40°40' W 074°01'0 0.0
2017-Mar-22 11:32N 40°40' W 074°01'1 1.4
2017-Mar-22 10:31N 40°39' W 074°03'0 0.3
2017-Mar-22 09:32N 40°39' W 074°02'0 0.1
2017-Mar-22 08:33N 40°39' W 074°02'0 0.1
2017-Mar-22 07:33N 40°39' W 074°02'0 0.1
2017-Mar-22 06:31N 40°39' W 074°02'0 0.0
2017-Mar-22 05:32N 40°39' W 074°02'0 0.0
2017-Mar-22 04:32N 40°39' W 074°02'0 0.0
2017-Mar-22 03:33N 40°39' W 074°02'0 0.0
2017-Mar-22 02:33N 40°39' W 074°02'0 0.0
2017-Mar-22 01:31N 40°39' W 074°02'0 0.0
2017-Mar-22 00:32N 40°39' W 074°02'0 0.0
2017-Mar-21 23:32N 40°39' W 074°02'0 0.1
2017-Mar-21 22:33N 40°39' W 074°02'0 0.0
2017-Mar-21 21:31N 40°39' W 074°02'0 0.0
2017-Mar-21 20:31N 40°39' W 074°02'0 0.1
2017-Mar-21 19:32N 40°39' W 074°02'0 0.1
2017-Mar-21 18:33N 40°39' W 074°03'0 0.1
2017-Mar-21 17:33N 40°39' W 074°02'0 0.0
2017-Mar-21 16:31N 40°39' W 074°02'0 0.0
2017-Mar-21 15:31N 40°39' W 074°02'0 0.0
2017-Mar-21 14:32N 40°39' W 074°02'0 0.0
2017-Mar-21 13:33N 40°39' W 074°02'0 0.0
2017-Mar-21 12:33N 40°39' W 074°02'0 0.0
2017-Mar-21 11:31N 40°39' W 074°02'0 0.0
2017-Mar-21 10:32N 40°39' W 074°02'0 0.0
2017-Mar-21 09:32N 40°39' W 074°03'0 0.2
2017-Mar-21 08:33N 40°39' W 074°02'0 0.0
2017-Mar-21 07:31N 40°39' W 074°02'0 0.0
2017-Mar-21 06:31N 40°39' W 074°02'0 0.1
2017-Mar-21 05:32N 40°39' W 074°02'0 0.0
2017-Mar-21 04:33N 40°39' W 074°02'3 3.4
2017-Mar-21 03:33N 40°42' W 074°00'8 7.9
2017-Mar-21 02:33N 40°48' W 073°53'5 5.2
2017-Mar-21 01:33N 40°49' W 073°47'0 0.2
2017-Mar-20 23:26N 40°49' W 073°47'7 0.3
2017-Mar-20 03:11N 40°54' W 073°41'6 9.7
2017-Mar-20 02:32N 40°50' W 073°47'8 7.9
2017-Mar-20 01:33N 40°47' W 073°56'8 7.9
2017-Mar-20 00:34N 40°40' W 074°02'1 1.0
2017-Mar-19 23:33N 40°39' W 074°02'0 0.0
2017-Mar-19 22:33N 40°39' W 074°02'0 0.0
2017-Mar-19 21:33N 40°39' W 074°02'6 6.2
2017-Mar-19 20:33N 40°39' W 074°11'4 3.8
2017-Mar-19 19:33N 40°35' W 074°13'1 0.6
2017-Mar-19 18:26N 40°36' W 074°12'0 0.0
2017-Mar-19 17:33N 40°36' W 074°12'0 0.0
2017-Mar-19 16:33N 40°36' W 074°12'0 0.0
2017-Mar-19 15:32N 40°36' W 074°12'0 0.0
2017-Mar-19 14:33N 40°36' W 074°12'0 0.3
2017-Mar-19 13:13N 40°35' W 074°12'0 0.2
2017-Mar-19 12:33N 40°35' W 074°12'5 4.9
2017-Mar-19 11:33N 40°39' W 074°07'0 0.0
2017-Mar-19 10:33N 40°39' W 074°07'3 3.4
2017-Mar-19 09:33N 40°38' W 074°12'3 3.3
2017-Mar-19 08:33N 40°35' W 074°13'4 4.3
2017-Mar-19 07:33N 40°39' W 074°10'7 6.9
2017-Mar-19 06:33N 40°40' W 074°01'1 0.7
2017-Mar-19 05:33N 40°40' W 074°00'0 0.0
2017-Mar-19 04:33N 40°40' W 074°00'0 0.0
2017-Mar-19 03:33N 40°40' W 074°00'3 2.6
2017-Mar-19 02:33N 40°39' W 074°03'1 0.8
2017-Mar-19 01:33N 40°39' W 074°02'2 1.6
2017-Mar-19 00:33N 40°40' W 074°00'0 0.0
2017-Mar-18 23:33N 40°40' W 074°00'4 3.7
2017-Mar-18 22:33N 40°39' W 074°05'4 4.3
2017-Mar-18 21:34N 40°41' W 074°00'1 1.4
2017-Mar-18 20:32N 40°40' W 074°00'0 0.0
2017-Mar-18 19:32N 40°40' W 074°00'1 1.5
2017-Mar-18 18:33N 40°41' W 074°00'5 4.6
2017-Mar-18 17:33N 40°39' W 074°05'0 0.1
2017-Mar-18 16:31N 40°39' W 074°05'0 0.0
2017-Mar-18 15:31N 40°39' W 074°05'3 3.4
2017-Mar-18 14:34N 40°40' W 074°01'0 0.3
2017-Mar-18 13:33N 40°40' W 074°01'0 0.0
2017-Mar-18 12:31N 40°40' W 074°01'0 0.0
2017-Mar-18 11:31N 40°40' W 074°01'0 0.0
2017-Mar-18 10:32N 40°40' W 074°01'1 0.7
2017-Mar-18 09:31N 40°40' W 074°00'0 0.0
2017-Mar-18 08:31N 40°40' W 074°00'0 0.0
2017-Mar-18 07:32N 40°40' W 074°00'0 0.0
2017-Mar-18 06:33N 40°40' W 074°00'0 0.0
2017-Mar-18 05:33N 40°40' W 074°00'0 0.0
2017-Mar-18 04:34N 40°40' W 074°00'1 0.8
2017-Mar-18 03:34N 40°40' W 074°01'7 7.2
2017-Mar-18 02:33N 40°47' W 073°60'1110.6
2017-Mar-18 01:32N 40°57' W 073°54'4 0.1
2017-Mar-16 06:24N 41°00' W 073°53'810.0
2017-Mar-16 05:33N 40°52' W 073°56'1010.3
2017-Mar-16 04:34N 40°43' W 074°01'7 6.6
2017-Mar-16 03:34N 40°39' W 074°09'3 3.4
2017-Mar-16 02:33N 40°43' W 074°07'0 0.1
2017-Mar-16 01:33N 40°42' W 074°07'0 0.0
2017-Mar-16 00:33N 40°42' W 074°07'0 0.1
2017-Mar-15 23:34N 40°42' W 074°07'0 0.0
2017-Mar-15 22:31N 40°42' W 074°07'0 0.0
2017-Mar-15 21:32N 40°42' W 074°07'0 0.0
2017-Mar-15 20:33N 40°42' W 074°07'0 0.0
2017-Mar-15 19:33N 40°42' W 074°07'0 0.0
2017-Mar-15 18:33N 40°42' W 074°07'0 0.0
2017-Mar-15 17:33N 40°42' W 074°07'0 0.1
2017-Mar-15 16:33N 40°42' W 074°07'4 3.8
2017-Mar-15 15:33N 40°39' W 074°05'4 3.6
2017-Mar-15 14:33N 40°40' W 074°00'0 0.0
2017-Mar-15 13:33N 40°40' W 074°00'0 0.0
2017-Mar-15 12:33N 40°40' W 074°00'0 0.0
2017-Mar-15 11:33N 40°40' W 074°00'0 0.0
2017-Mar-15 10:33N 40°40' W 074°00'2 1.7
2017-Mar-15 09:33N 40°39' W 074°02'2 1.7
2017-Mar-15 08:33N 40°39' W 074°04'1 1.4
2017-Mar-15 07:33N 40°39' W 074°06'4 3.9
2017-Mar-15 06:33N 40°43' W 074°07'3 3.0
2017-Mar-15 05:33N 40°40' W 074°09'5 4.5
2017-Mar-15 04:20N 40°35' W 074°13'0 0.0
2017-Mar-14 14:09N 40°35' W 074°12'0 0.0
2017-Mar-14 10:20N 40°35' W 074°12'  
Track history (hours):
 
Tides and Currents Weather Stations Pressure Air Temp Water Temp Dewpoint Dewpoint Depression Visibility Wind Speed Wind Dir Waves Ship Positions

Nanticoke

Owner: Vane Line Bunkering, Baltimore, MD. More information available from US FCC via Universal Licensing System and Coast Guard Vessel Documentation Center.

Last reported at 2017-Mar-24 05:33 UTC. Time now 2017-Mar-24 06:15 UTC.
Position N 40°39' W 074°08'.

Length 34 m; draft 4.7 m.

Type: Towing. MMSI: 367023480.

Date/timePositionNaut miles runAvg speedWind from/ knotsBaromVisibWave heightAir tempDewpointWater temp
2017-Mar-24 05:33N 40°39' W 074°08'3 2.7
2017-Mar-24 04:33N 40°39' W 074°05'1 1.1
2017-Mar-24 03:31N 40°40' W 074°05'0 0.0
2017-Mar-24 02:32N 40°40' W 074°05'0 0.0
2017-Mar-24 01:32N 40°40' W 074°05'0 0.0
2017-Mar-24 00:33N 40°40' W 074°05'2 2.0
2017-Mar-23 23:32N 40°39' W 074°07'0 0.0
2017-Mar-23 22:33N 40°39' W 074°07'6 5.7
2017-Mar-23 21:32N 40°41' W 074°00'1 1.3
2017-Mar-23 20:32N 40°40' W 074°00'0 0.0
2017-Mar-23 19:33N 40°40' W 074°00'0 0.0
2017-Mar-23 18:33N 40°40' W 074°00'0 0.0
2017-Mar-23 17:32N 40°40' W 074°00'3 3.4
2017-Mar-23 16:33N 40°39' W 074°04'4 3.6
2017-Mar-23 15:28N 40°41' W 074°09'0 0.0
2017-Mar-23 14:32N 40°41' W 074°09'0 0.0
2017-Mar-23 13:32N 40°41' W 074°09'1 0.6
2017-Mar-23 12:32N 40°41' W 074°09'0 0.1
2017-Mar-23 11:33N 40°41' W 074°09'0 0.0
2017-Mar-23 10:33N 40°41' W 074°09'0 0.0
2017-Mar-23 09:22N 40°41' W 074°09'0 0.0
2017-Mar-23 08:11N 40°41' W 074°09'0 0.0
2017-Mar-23 07:32N 40°41' W 074°09'0 0.0
2017-Mar-23 06:33N 40°41' W 074°09'0 0.0
2017-Mar-23 05:31N 40°41' W 074°09'0 0.0
2017-Mar-23 04:31N 40°41' W 074°09'0 0.0
2017-Mar-23 03:32N 40°41' W 074°09'0 0.0
2017-Mar-23 02:33N 40°41' W 074°09'0 0.0
2017-Mar-23 01:33N 40°41' W 074°09'0 0.0
2017-Mar-23 00:31N 40°41' W 074°09'0 0.0
2017-Mar-22 23:32N 40°41' W 074°09'0 0.0
2017-Mar-22 22:32N 40°41' W 074°09'0 0.0
2017-Mar-22 21:30N 40°41' W 074°09'2 2.0
2017-Mar-22 20:33N 40°39' W 074°09'2 2.0
2017-Mar-22 19:33N 40°39' W 074°06'2 1.5
2017-Mar-22 18:33N 40°40' W 074°05'0 0.0
2017-Mar-22 17:31N 40°40' W 074°05'2 1.9
2017-Mar-22 16:33N 40°40' W 074°03'2 1.9
2017-Mar-22 15:32N 40°40' W 074°00'0 0.0
2017-Mar-22 14:32N 40°40' W 074°00'0 0.0
2017-Mar-22 13:27N 40°40' W 074°00'1 0.8
2017-Mar-22 12:32N 40°40' W 074°01'0 0.0
2017-Mar-22 11:32N 40°40' W 074°01'1 1.4
2017-Mar-22 10:31N 40°39' W 074°03'0 0.3
2017-Mar-22 09:32N 40°39' W 074°02'0 0.1
2017-Mar-22 08:33N 40°39' W 074°02'0 0.1
2017-Mar-22 07:33N 40°39' W 074°02'0 0.1
2017-Mar-22 06:31N 40°39' W 074°02'0 0.0
2017-Mar-22 05:32N 40°39' W 074°02'0 0.0
2017-Mar-22 04:32N 40°39' W 074°02'0 0.0
2017-Mar-22 03:33N 40°39' W 074°02'0 0.0
2017-Mar-22 02:33N 40°39' W 074°02'0 0.0
2017-Mar-22 01:31N 40°39' W 074°02'0 0.0
2017-Mar-22 00:32N 40°39' W 074°02'0 0.0
2017-Mar-21 23:32N 40°39' W 074°02'0 0.1
2017-Mar-21 22:33N 40°39' W 074°02'0 0.0
2017-Mar-21 21:31N 40°39' W 074°02'0 0.0
2017-Mar-21 20:31N 40°39' W 074°02'0 0.1
2017-Mar-21 19:32N 40°39' W 074°02'0 0.1
2017-Mar-21 18:33N 40°39' W 074°03'0 0.1
2017-Mar-21 17:33N 40°39' W 074°02'0 0.0
2017-Mar-21 16:31N 40°39' W 074°02'0 0.0
2017-Mar-21 15:31N 40°39' W 074°02'0 0.0
2017-Mar-21 14:32N 40°39' W 074°02'0 0.0
2017-Mar-21 13:33N 40°39' W 074°02'0 0.0
2017-Mar-21 12:33N 40°39' W 074°02'0 0.0
2017-Mar-21 11:31N 40°39' W 074°02'0 0.0
2017-Mar-21 10:32N 40°39' W 074°02'0 0.0
2017-Mar-21 09:32N 40°39' W 074°03'0 0.2
2017-Mar-21 08:33N 40°39' W 074°02'0 0.0
2017-Mar-21 07:31N 40°39' W 074°02'0 0.0
2017-Mar-21 06:31N 40°39' W 074°02'0 0.1
2017-Mar-21 05:32N 40°39' W 074°02'0 0.0
2017-Mar-21 04:33N 40°39' W 074°02'3 3.4
2017-Mar-21 03:33N 40°42' W 074°00'8 7.9
2017-Mar-21 02:33N 40°48' W 073°53'5 5.2
2017-Mar-21 01:33N 40°49' W 073°47'0 0.2
2017-Mar-20 23:26N 40°49' W 073°47'7 0.3
2017-Mar-20 03:11N 40°54' W 073°41'6 9.7
2017-Mar-20 02:32N 40°50' W 073°47'8 7.9
2017-Mar-20 01:33N 40°47' W 073°56'8 7.9
2017-Mar-20 00:34N 40°40' W 074°02'1 1.0
2017-Mar-19 23:33N 40°39' W 074°02'0 0.0
2017-Mar-19 22:33N 40°39' W 074°02'0 0.0
2017-Mar-19 21:33N 40°39' W 074°02'6 6.2
2017-Mar-19 20:33N 40°39' W 074°11'4 3.8
2017-Mar-19 19:33N 40°35' W 074°13'1 0.6
2017-Mar-19 18:26N 40°36' W 074°12'0 0.0
2017-Mar-19 17:33N 40°36' W 074°12'0 0.0
2017-Mar-19 16:33N 40°36' W 074°12'0 0.0
2017-Mar-19 15:32N 40°36' W 074°12'0 0.0
2017-Mar-19 14:33N 40°36' W 074°12'0 0.3
2017-Mar-19 13:13N 40°35' W 074°12'0 0.2
2017-Mar-19 12:33N 40°35' W 074°12'5 4.9
2017-Mar-19 11:33N 40°39' W 074°07'0 0.0
2017-Mar-19 10:33N 40°39' W 074°07'3 3.4
2017-Mar-19 09:33N 40°38' W 074°12'3 3.3
2017-Mar-19 08:33N 40°35' W 074°13'4 4.3
2017-Mar-19 07:33N 40°39' W 074°10'7 6.9
2017-Mar-19 06:33N 40°40' W 074°01'1 0.7
2017-Mar-19 05:33N 40°40' W 074°00'0 0.0
2017-Mar-19 04:33N 40°40' W 074°00'0 0.0
2017-Mar-19 03:33N 40°40' W 074°00'3 2.6
2017-Mar-19 02:33N 40°39' W 074°03'1 0.8
2017-Mar-19 01:33N 40°39' W 074°02'2 1.6
2017-Mar-19 00:33N 40°40' W 074°00'0 0.0
2017-Mar-18 23:33N 40°40' W 074°00'4 3.7
2017-Mar-18 22:33N 40°39' W 074°05'4 4.3
2017-Mar-18 21:34N 40°41' W 074°00'1 1.4
2017-Mar-18 20:32N 40°40' W 074°00'0 0.0
2017-Mar-18 19:32N 40°40' W 074°00'1 1.5
2017-Mar-18 18:33N 40°41' W 074°00'5 4.6
2017-Mar-18 17:33N 40°39' W 074°05'0 0.1
2017-Mar-18 16:31N 40°39' W 074°05'0 0.0
2017-Mar-18 15:31N 40°39' W 074°05'3 3.4
2017-Mar-18 14:34N 40°40' W 074°01'0 0.3
2017-Mar-18 13:33N 40°40' W 074°01'0 0.0
2017-Mar-18 12:31N 40°40' W 074°01'0 0.0
2017-Mar-18 11:31N 40°40' W 074°01'0 0.0
2017-Mar-18 10:32N 40°40' W 074°01'1 0.7
2017-Mar-18 09:31N 40°40' W 074°00'0 0.0
2017-Mar-18 08:31N 40°40' W 074°00'0 0.0
2017-Mar-18 07:32N 40°40' W 074°00'0 0.0
2017-Mar-18 06:33N 40°40' W 074°00'0 0.0
2017-Mar-18 05:33N 40°40' W 074°00'0 0.0
2017-Mar-18 04:34N 40°40' W 074°00'1 0.8
2017-Mar-18 03:34N 40°40' W 074°01'7 7.2
2017-Mar-18 02:33N 40°47' W 073°60'1110.6
2017-Mar-18 01:32N 40°57' W 073°54'4 0.1
2017-Mar-16 06:24N 41°00' W 073°53'810.0
2017-Mar-16 05:33N 40°52' W 073°56'1010.3
2017-Mar-16 04:34N 40°43' W 074°01'7 6.6
2017-Mar-16 03:34N 40°39' W 074°09'3 3.4
2017-Mar-16 02:33N 40°43' W 074°07'0 0.1
2017-Mar-16 01:33N 40°42' W 074°07'0 0.0
2017-Mar-16 00:33N 40°42' W 074°07'0 0.1
2017-Mar-15 23:34N 40°42' W 074°07'0 0.0
2017-Mar-15 22:31N 40°42' W 074°07'0 0.0
2017-Mar-15 21:32N 40°42' W 074°07'0 0.0
2017-Mar-15 20:33N 40°42' W 074°07'0 0.0
2017-Mar-15 19:33N 40°42' W 074°07'0 0.0
2017-Mar-15 18:33N 40°42' W 074°07'0 0.0
2017-Mar-15 17:33N 40°42' W 074°07'0 0.1
2017-Mar-15 16:33N 40°42' W 074°07'4 3.8
2017-Mar-15 15:33N 40°39' W 074°05'4 3.6
2017-Mar-15 14:33N 40°40' W 074°00'0 0.0
2017-Mar-15 13:33N 40°40' W 074°00'0 0.0
2017-Mar-15 12:33N 40°40' W 074°00'0 0.0
2017-Mar-15 11:33N 40°40' W 074°00'0 0.0
2017-Mar-15 10:33N 40°40' W 074°00'2 1.7
2017-Mar-15 09:33N 40°39' W 074°02'2 1.7
2017-Mar-15 08:33N 40°39' W 074°04'1 1.4
2017-Mar-15 07:33N 40°39' W 074°06'4 3.9
2017-Mar-15 06:33N 40°43' W 074°07'3 3.0
2017-Mar-15 05:33N 40°40' W 074°09'5 4.5
2017-Mar-15 04:20N 40°35' W 074°13'0 0.0
2017-Mar-14 14:09N 40°35' W 074°12'0 0.0
2017-Mar-14 10:20N 40°35' W 074°12'  

Dump ship's entire track history